sensor_id;sensor_type;location;lat;lon;timestamp;P1;durP1;ratioP1;P2;durP2;ratioP2
37495;SDS011;23346;52.088;4.746;2022-08-21T00:00:14;12.80;;;6.23;;
37495;SDS011;23346;52.088;4.746;2022-08-21T00:02:45;19.57;;;6.63;;
37495;SDS011;23346;52.088;4.746;2022-08-21T00:05:12;19.23;;;6.63;;
37495;SDS011;23346;52.088;4.746;2022-08-21T00:07:38;13.97;;;5.77;;
37495;SDS011;23346;52.088;4.746;2022-08-21T00:10:04;19.80;;;5.87;;
37495;SDS011;23346;52.088;4.746;2022-08-21T00:12:31;17.43;;;6.20;;
37495;SDS011;23346;52.088;4.746;2022-08-21T00:14:57;14.40;;;5.93;;
37495;SDS011;23346;52.088;4.746;2022-08-21T00:17:23;22.63;;;6.60;;
37495;SDS011;23346;52.088;4.746;2022-08-21T00:19:49;16.93;;;6.67;;
37495;SDS011;23346;52.088;4.746;2022-08-21T00:22:15;22.37;;;6.77;;
37495;SDS011;23346;52.088;4.746;2022-08-21T00:24:42;18.13;;;6.40;;
37495;SDS011;23346;52.088;4.746;2022-08-21T00:27:08;19.90;;;6.47;;
37495;SDS011;23346;52.088;4.746;2022-08-21T00:29:34;26.53;;;7.77;;
37495;SDS011;23346;52.088;4.746;2022-08-21T00:32:00;18.63;;;6.50;;
37495;SDS011;23346;52.088;4.746;2022-08-21T00:34:26;17.90;;;6.57;;
37495;SDS011;23346;52.088;4.746;2022-08-21T00:36:52;23.07;;;7.00;;
37495;SDS011;23346;52.088;4.746;2022-08-21T00:39:18;18.73;;;6.73;;
37495;SDS011;23346;52.088;4.746;2022-08-21T00:41:44;20.80;;;6.73;;
37495;SDS011;23346;52.088;4.746;2022-08-21T00:44:12;23.30;;;7.27;;
37495;SDS011;23346;52.088;4.746;2022-08-21T00:46:39;25.03;;;7.87;;
37495;SDS011;23346;52.088;4.746;2022-08-21T00:49:06;15.90;;;7.23;;
37495;SDS011;23346;52.088;4.746;2022-08-21T00:52:15;23.47;;;7.30;;
37495;SDS011;23346;52.088;4.746;2022-08-21T00:54:22;17.37;;;6.97;;
37495;SDS011;23346;52.088;4.746;2022-08-21T00:56:50;18.57;;;7.80;;
37495;SDS011;23346;52.088;4.746;2022-08-21T00:59:18;25.10;;;7.57;;
37495;SDS011;23346;52.088;4.746;2022-08-21T01:01:44;21.17;;;7.47;;
37495;SDS011;23346;52.088;4.746;2022-08-21T01:04:11;20.13;;;8.20;;
37495;SDS011;23346;52.088;4.746;2022-08-21T01:06:37;27.37;;;7.73;;
37495;SDS011;23346;52.088;4.746;2022-08-21T01:09:03;17.43;;;7.37;;
37495;SDS011;23346;52.088;4.746;2022-08-21T01:11:29;26.17;;;7.80;;
37495;SDS011;23346;52.088;4.746;2022-08-21T01:13:55;32.07;;;9.03;;
37495;SDS011;23346;52.088;4.746;2022-08-21T01:16:21;18.23;;;6.97;;
37495;SDS011;23346;52.088;4.746;2022-08-21T01:18:48;22.33;;;7.37;;
37495;SDS011;23346;52.088;4.746;2022-08-21T01:21:19;24.70;;;7.40;;
37495;SDS011;23346;52.088;4.746;2022-08-21T01:23:46;21.33;;;6.80;;
37495;SDS011;23346;52.088;4.746;2022-08-21T01:26:13;15.77;;;7.07;;
37495;SDS011;23346;52.088;4.746;2022-08-21T01:28:44;22.30;;;8.33;;
37495;SDS011;23346;52.088;4.746;2022-08-21T01:31:10;21.67;;;7.17;;
37495;SDS011;23346;52.088;4.746;2022-08-21T01:33:38;21.23;;;7.60;;
37495;SDS011;23346;52.088;4.746;2022-08-21T01:36:04;17.33;;;7.03;;
37495;SDS011;23346;52.088;4.746;2022-08-21T01:38:31;25.87;;;8.70;;
37495;SDS011;23346;52.088;4.746;2022-08-21T01:40:57;24.70;;;8.20;;
37495;SDS011;23346;52.088;4.746;2022-08-21T01:43:23;16.67;;;7.27;;
37495;SDS011;23346;52.088;4.746;2022-08-21T01:45:49;23.40;;;8.33;;
37495;SDS011;23346;52.088;4.746;2022-08-21T01:48:16;21.80;;;7.67;;
37495;SDS011;23346;52.088;4.746;2022-08-21T01:50:42;15.93;;;7.67;;
37495;SDS011;23346;52.088;4.746;2022-08-21T01:53:08;28.53;;;9.37;;
37495;SDS011;23346;52.088;4.746;2022-08-21T01:55:34;19.20;;;8.40;;
37495;SDS011;23346;52.088;4.746;2022-08-21T01:58:00;18.30;;;8.20;;
37495;SDS011;23346;52.088;4.746;2022-08-21T02:00:26;21.17;;;8.87;;
37495;SDS011;23346;52.088;4.746;2022-08-21T02:02:52;26.67;;;8.63;;
37495;SDS011;23346;52.088;4.746;2022-08-21T02:05:18;22.50;;;8.30;;
37495;SDS011;23346;52.088;4.746;2022-08-21T02:07:46;25.63;;;9.50;;
37495;SDS011;23346;52.088;4.746;2022-08-21T02:10:13;29.53;;;9.97;;
37495;SDS011;23346;52.088;4.746;2022-08-21T02:12:40;23.77;;;9.33;;
37495;SDS011;23346;52.088;4.746;2022-08-21T02:15:06;24.50;;;9.47;;
37495;SDS011;23346;52.088;4.746;2022-08-21T02:17:43;28.90;;;10.23;;
37495;SDS011;23346;52.088;4.746;2022-08-21T02:20:10;22.17;;;8.83;;
37495;SDS011;23346;52.088;4.746;2022-08-21T02:22:36;22.53;;;9.17;;
37495;SDS011;23346;52.088;4.746;2022-08-21T02:25:02;23.80;;;8.87;;
37495;SDS011;23346;52.088;4.746;2022-08-21T02:27:29;24.60;;;10.10;;
37495;SDS011;23346;52.088;4.746;2022-08-21T02:29:55;30.43;;;10.27;;
37495;SDS011;23346;52.088;4.746;2022-08-21T02:32:22;30.17;;;10.23;;
37495;SDS011;23346;52.088;4.746;2022-08-21T02:34:48;29.37;;;12.23;;
37495;SDS011;23346;52.088;4.746;2022-08-21T02:37:14;25.47;;;11.17;;
37495;SDS011;23346;52.088;4.746;2022-08-21T02:39:40;28.83;;;10.83;;
37495;SDS011;23346;52.088;4.746;2022-08-21T02:42:06;30.10;;;11.43;;
37495;SDS011;23346;52.088;4.746;2022-08-21T02:44:32;27.13;;;10.00;;
37495;SDS011;23346;52.088;4.746;2022-08-21T02:46:58;27.17;;;10.83;;
37495;SDS011;23346;52.088;4.746;2022-08-21T02:49:24;28.63;;;11.33;;
37495;SDS011;23346;52.088;4.746;2022-08-21T02:51:50;36.60;;;12.13;;
37495;SDS011;23346;52.088;4.746;2022-08-21T02:54:16;28.87;;;12.17;;
37495;SDS011;23346;52.088;4.746;2022-08-21T02:56:42;27.13;;;12.03;;
37495;SDS011;23346;52.088;4.746;2022-08-21T02:59:08;40.57;;;12.40;;
37495;SDS011;23346;52.088;4.746;2022-08-21T03:01:34;33.60;;;12.67;;
37495;SDS011;23346;52.088;4.746;2022-08-21T03:04:02;32.20;;;12.03;;
37495;SDS011;23346;52.088;4.746;2022-08-21T03:06:28;44.43;;;13.13;;
37495;SDS011;23346;52.088;4.746;2022-08-21T03:08:54;30.13;;;12.33;;
37495;SDS011;23346;52.088;4.746;2022-08-21T03:11:20;36.03;;;12.13;;
37495;SDS011;23346;52.088;4.746;2022-08-21T03:13:46;34.10;;;12.27;;
37495;SDS011;23346;52.088;4.746;2022-08-21T03:16:12;27.53;;;12.17;;
37495;SDS011;23346;52.088;4.746;2022-08-21T03:18:38;24.77;;;12.00;;
37495;SDS011;23346;52.088;4.746;2022-08-21T03:21:04;33.97;;;10.90;;
37495;SDS011;23346;52.088;4.746;2022-08-21T03:23:30;30.00;;;10.60;;
37495;SDS011;23346;52.088;4.746;2022-08-21T03:25:57;28.20;;;10.93;;
37495;SDS011;23346;52.088;4.746;2022-08-21T03:28:23;32.80;;;11.17;;
37495;SDS011;23346;52.088;4.746;2022-08-21T03:30:49;35.87;;;11.37;;
37495;SDS011;23346;52.088;4.746;2022-08-21T03:33:16;31.37;;;11.77;;
37495;SDS011;23346;52.088;4.746;2022-08-21T03:35:43;30.07;;;11.00;;
37495;SDS011;23346;52.088;4.746;2022-08-21T03:38:09;29.83;;;11.07;;
37495;SDS011;23346;52.088;4.746;2022-08-21T03:40:37;24.53;;;10.30;;
37495;SDS011;23346;52.088;4.746;2022-08-21T03:43:03;30.23;;;10.43;;
37495;SDS011;23346;52.088;4.746;2022-08-21T03:45:29;32.07;;;10.80;;
37495;SDS011;23346;52.088;4.746;2022-08-21T03:47:58;27.93;;;10.17;;
37495;SDS011;23346;52.088;4.746;2022-08-21T03:50:25;25.97;;;9.77;;
37495;SDS011;23346;52.088;4.746;2022-08-21T03:52:51;26.67;;;10.20;;
37495;SDS011;23346;52.088;4.746;2022-08-21T03:55:17;27.67;;;10.60;;
37495;SDS011;23346;52.088;4.746;2022-08-21T03:57:43;25.50;;;10.37;;
37495;SDS011;23346;52.088;4.746;2022-08-21T04:00:10;27.20;;;9.97;;
37495;SDS011;23346;52.088;4.746;2022-08-21T04:02:37;24.97;;;9.90;;
37495;SDS011;23346;52.088;4.746;2022-08-21T04:05:03;31.50;;;10.80;;
37495;SDS011;23346;52.088;4.746;2022-08-21T04:07:30;31.03;;;10.33;;
37495;SDS011;23346;52.088;4.746;2022-08-21T04:09:56;30.87;;;11.17;;
37495;SDS011;23346;52.088;4.746;2022-08-21T04:12:21;27.10;;;9.83;;
37495;SDS011;23346;52.088;4.746;2022-08-21T04:14:48;31.03;;;9.47;;
37495;SDS011;23346;52.088;4.746;2022-08-21T04:17:16;22.70;;;9.53;;
37495;SDS011;23346;52.088;4.746;2022-08-21T04:19:42;25.93;;;9.40;;
37495;SDS011;23346;52.088;4.746;2022-08-21T04:22:08;35.53;;;9.77;;
37495;SDS011;23346;52.088;4.746;2022-08-21T04:24:34;31.93;;;9.90;;
37495;SDS011;23346;52.088;4.746;2022-08-21T04:27:00;25.60;;;10.67;;
37495;SDS011;23346;52.088;4.746;2022-08-21T04:29:26;26.53;;;9.07;;
37495;SDS011;23346;52.088;4.746;2022-08-21T04:31:53;32.33;;;9.07;;
37495;SDS011;23346;52.088;4.746;2022-08-21T04:34:19;34.53;;;10.87;;
37495;SDS011;23346;52.088;4.746;2022-08-21T04:36:45;32.23;;;9.73;;
37495;SDS011;23346;52.088;4.746;2022-08-21T04:39:11;30.50;;;10.40;;
37495;SDS011;23346;52.088;4.746;2022-08-21T04:41:37;25.33;;;9.33;;
37495;SDS011;23346;52.088;4.746;2022-08-21T04:44:04;29.40;;;10.13;;
37495;SDS011;23346;52.088;4.746;2022-08-21T04:46:31;33.40;;;9.20;;
37495;SDS011;23346;52.088;4.746;2022-08-21T04:48:57;35.00;;;9.90;;
37495;SDS011;23346;52.088;4.746;2022-08-21T04:51:31;29.93;;;9.83;;
37495;SDS011;23346;52.088;4.746;2022-08-21T04:53:59;29.87;;;9.67;;
37495;SDS011;23346;52.088;4.746;2022-08-21T04:56:29;25.30;;;8.73;;
37495;SDS011;23346;52.088;4.746;2022-08-21T04:58:57;27.57;;;9.57;;
37495;SDS011;23346;52.088;4.746;2022-08-21T05:01:24;24.00;;;8.70;;
37495;SDS011;23346;52.088;4.746;2022-08-21T05:03:52;35.17;;;9.37;;
37495;SDS011;23346;52.088;4.746;2022-08-21T05:06:19;25.10;;;9.80;;
37495;SDS011;23346;52.088;4.746;2022-08-21T05:08:46;25.33;;;8.77;;
37495;SDS011;23346;52.088;4.746;2022-08-21T05:11:14;28.13;;;10.20;;
37495;SDS011;23346;52.088;4.746;2022-08-21T05:13:40;25.73;;;9.80;;
37495;SDS011;23346;52.088;4.746;2022-08-21T05:16:06;30.23;;;9.20;;
37495;SDS011;23346;52.088;4.746;2022-08-21T05:18:32;30.47;;;9.53;;
37495;SDS011;23346;52.088;4.746;2022-08-21T05:20:58;34.07;;;9.67;;
37495;SDS011;23346;52.088;4.746;2022-08-21T05:23:24;39.33;;;11.50;;
37495;SDS011;23346;52.088;4.746;2022-08-21T05:25:51;34.70;;;10.53;;
37495;SDS011;23346;52.088;4.746;2022-08-21T05:28:17;26.57;;;10.27;;
37495;SDS011;23346;52.088;4.746;2022-08-21T05:30:44;30.70;;;10.57;;
37495;SDS011;23346;52.088;4.746;2022-08-21T05:33:10;31.57;;;10.67;;
37495;SDS011;23346;52.088;4.746;2022-08-21T05:35:37;30.57;;;11.43;;
37495;SDS011;23346;52.088;4.746;2022-08-21T05:38:03;27.83;;;11.00;;
37495;SDS011;23346;52.088;4.746;2022-08-21T05:40:29;29.17;;;11.43;;
37495;SDS011;23346;52.088;4.746;2022-08-21T05:42:56;35.23;;;10.93;;
37495;SDS011;23346;52.088;4.746;2022-08-21T05:45:25;43.07;;;14.23;;
37495;SDS011;23346;52.088;4.746;2022-08-21T05:47:51;35.27;;;12.40;;
37495;SDS011;23346;52.088;4.746;2022-08-21T05:50:17;36.27;;;12.70;;
37495;SDS011;23346;52.088;4.746;2022-08-21T05:52:44;32.93;;;11.40;;
37495;SDS011;23346;52.088;4.746;2022-08-21T05:55:10;35.80;;;11.67;;
37495;SDS011;23346;52.088;4.746;2022-08-21T05:57:36;37.07;;;12.20;;
37495;SDS011;23346;52.088;4.746;2022-08-21T06:00:06;36.07;;;11.13;;
37495;SDS011;23346;52.088;4.746;2022-08-21T06:02:34;34.42;;;11.15;;
37495;SDS011;23346;52.088;4.746;2022-08-21T06:05:00;37.92;;;11.82;;
37495;SDS011;23346;52.088;4.746;2022-08-21T06:07:26;31.60;;;12.03;;
37495;SDS011;23346;52.088;4.746;2022-08-21T06:09:53;34.60;;;10.63;;
37495;SDS011;23346;52.088;4.746;2022-08-21T06:12:19;33.43;;;11.00;;
37495;SDS011;23346;52.088;4.746;2022-08-21T06:14:45;36.00;;;11.20;;
37495;SDS011;23346;52.088;4.746;2022-08-21T06:17:12;34.97;;;10.50;;
37495;SDS011;23346;52.088;4.746;2022-08-21T06:19:38;40.50;;;9.93;;
37495;SDS011;23346;52.088;4.746;2022-08-21T06:22:04;32.67;;;10.20;;
37495;SDS011;23346;52.088;4.746;2022-08-21T06:24:30;38.53;;;10.50;;
37495;SDS011;23346;52.088;4.746;2022-08-21T06:26:57;30.55;;;10.75;;
37495;SDS011;23346;52.088;4.746;2022-08-21T06:29:23;28.52;;;9.77;;
37495;SDS011;23346;52.088;4.746;2022-08-21T06:31:49;20.48;;;8.50;;
37495;SDS011;23346;52.088;4.746;2022-08-21T06:34:16;30.58;;;9.52;;
37495;SDS011;23346;52.088;4.746;2022-08-21T06:36:43;29.45;;;10.30;;
37495;SDS011;23346;52.088;4.746;2022-08-21T06:39:09;22.17;;;8.48;;
37495;SDS011;23346;52.088;4.746;2022-08-21T06:41:35;22.05;;;8.10;;
37495;SDS011;23346;52.088;4.746;2022-08-21T06:44:01;21.40;;;7.55;;
37495;SDS011;23346;52.088;4.746;2022-08-21T06:46:28;21.88;;;8.30;;
37495;SDS011;23346;52.088;4.746;2022-08-21T06:48:54;16.98;;;7.45;;
37495;SDS011;23346;52.088;4.746;2022-08-21T06:51:21;18.73;;;7.55;;
37495;SDS011;23346;52.088;4.746;2022-08-21T06:53:47;22.98;;;6.38;;
37495;SDS011;23346;52.088;4.746;2022-08-21T06:56:14;20.90;;;6.80;;
37495;SDS011;23346;52.088;4.746;2022-08-21T06:58:40;22.10;;;7.07;;
37495;SDS011;23346;52.088;4.746;2022-08-21T07:01:06;23.60;;;7.10;;
37495;SDS011;23346;52.088;4.746;2022-08-21T07:03:33;19.27;;;6.32;;
37495;SDS011;23346;52.088;4.746;2022-08-21T07:06:00;20.80;;;6.68;;
37495;SDS011;23346;52.088;4.746;2022-08-21T07:08:26;17.60;;;6.10;;
37495;SDS011;23346;52.088;4.746;2022-08-21T07:10:53;20.98;;;5.85;;
37495;SDS011;23346;52.088;4.746;2022-08-21T07:13:20;16.40;;;5.18;;
37495;SDS011;23346;52.088;4.746;2022-08-21T07:15:46;24.80;;;6.03;;
37495;SDS011;23346;52.088;4.746;2022-08-21T07:18:12;18.17;;;5.10;;
37495;SDS011;23346;52.088;4.746;2022-08-21T07:20:38;21.08;;;5.57;;
37495;SDS011;23346;52.088;4.746;2022-08-21T07:23:06;13.65;;;5.28;;
37495;SDS011;23346;52.088;4.746;2022-08-21T07:25:32;16.23;;;5.38;;
37495;SDS011;23346;52.088;4.746;2022-08-21T07:27:58;16.33;;;5.32;;
37495;SDS011;23346;52.088;4.746;2022-08-21T07:30:25;16.58;;;4.72;;
37495;SDS011;23346;52.088;4.746;2022-08-21T07:32:53;17.30;;;5.30;;
37495;SDS011;23346;52.088;4.746;2022-08-21T07:35:20;22.70;;;5.40;;
37495;SDS011;23346;52.088;4.746;2022-08-21T07:37:46;14.60;;;4.63;;
37495;SDS011;23346;52.088;4.746;2022-08-21T07:40:12;15.68;;;3.97;;
37495;SDS011;23346;52.088;4.746;2022-08-21T07:42:42;12.77;;;4.22;;
37495;SDS011;23346;52.088;4.746;2022-08-21T07:45:09;11.85;;;3.63;;
37495;SDS011;23346;52.088;4.746;2022-08-21T07:47:35;13.95;;;3.75;;
37495;SDS011;23346;52.088;4.746;2022-08-21T07:50:01;10.18;;;3.53;;
37495;SDS011;23346;52.088;4.746;2022-08-21T07:52:27;15.23;;;3.53;;
37495;SDS011;23346;52.088;4.746;2022-08-21T07:54:53;16.23;;;3.60;;
37495;SDS011;23346;52.088;4.746;2022-08-21T07:57:19;11.57;;;3.40;;
37495;SDS011;23346;52.088;4.746;2022-08-21T07:59:45;10.85;;;3.38;;
37495;SDS011;23346;52.088;4.746;2022-08-21T08:02:21;8.07;;;2.33;;
37495;SDS011;23346;52.088;4.746;2022-08-21T08:04:47;12.60;;;2.58;;
37495;SDS011;23346;52.088;4.746;2022-08-21T08:07:13;16.20;;;3.58;;
37495;SDS011;23346;52.088;4.746;2022-08-21T08:09:38;10.52;;;2.78;;
37495;SDS011;23346;52.088;4.746;2022-08-21T08:12:05;15.63;;;3.00;;
37495;SDS011;23346;52.088;4.746;2022-08-21T08:14:31;15.18;;;2.75;;
37495;SDS011;23346;52.088;4.746;2022-08-21T08:16:57;14.68;;;2.38;;
37495;SDS011;23346;52.088;4.746;2022-08-21T08:19:23;9.43;;;2.25;;
37495;SDS011;23346;52.088;4.746;2022-08-21T08:21:49;12.77;;;2.30;;
37495;SDS011;23346;52.088;4.746;2022-08-21T08:24:15;13.68;;;2.50;;
37495;SDS011;23346;52.088;4.746;2022-08-21T08:26:41;15.40;;;3.10;;
37495;SDS011;23346;52.088;4.746;2022-08-21T08:29:08;9.68;;;1.83;;
37495;SDS011;23346;52.088;4.746;2022-08-21T08:31:34;10.82;;;1.90;;
37495;SDS011;23346;52.088;4.746;2022-08-21T08:34:00;8.70;;;2.03;;
37495;SDS011;23346;52.088;4.746;2022-08-21T08:36:35;9.05;;;2.35;;
37495;SDS011;23346;52.088;4.746;2022-08-21T08:39:02;13.57;;;2.33;;
37495;SDS011;23346;52.088;4.746;2022-08-21T08:41:29;13.55;;;2.75;;
37495;SDS011;23346;52.088;4.746;2022-08-21T08:43:57;16.42;;;3.08;;
37495;SDS011;23346;52.088;4.746;2022-08-21T08:46:29;13.32;;;2.28;;
37495;SDS011;23346;52.088;4.746;2022-08-21T08:48:57;10.52;;;2.20;;
37495;SDS011;23346;52.088;4.746;2022-08-21T08:51:46;11.68;;;1.90;;
37495;SDS011;23346;52.088;4.746;2022-08-21T08:54:16;10.13;;;2.50;;
37495;SDS011;23346;52.088;4.746;2022-08-21T08:56:43;11.20;;;2.00;;
37495;SDS011;23346;52.088;4.746;2022-08-21T08:59:15;8.50;;;3.15;;
37495;SDS011;23346;52.088;4.746;2022-08-21T09:01:41;8.40;;;1.80;;
37495;SDS011;23346;52.088;4.746;2022-08-21T09:04:08;7.45;;;2.10;;
37495;SDS011;23346;52.088;4.746;2022-08-21T09:16:40;8.45;;;1.85;;
37495;SDS011;23346;52.088;4.746;2022-08-21T09:24:45;10.27;;;2.00;;
37495;SDS011;23346;52.088;4.746;2022-08-21T09:27:14;10.90;;;1.90;;
37495;SDS011;23346;52.088;4.746;2022-08-21T09:29:42;12.27;;;2.03;;
37495;SDS011;23346;52.088;4.746;2022-08-21T09:32:15;10.50;;;1.85;;
37495;SDS011;23346;52.088;4.746;2022-08-21T09:34:43;6.82;;;1.73;;
37495;SDS011;23346;52.088;4.746;2022-08-21T09:37:20;7.07;;;1.50;;
37495;SDS011;23346;52.088;4.746;2022-08-21T09:39:46;12.05;;;1.80;;
37495;SDS011;23346;52.088;4.746;2022-08-21T09:42:12;8.35;;;1.85;;
37495;SDS011;23346;52.088;4.746;2022-08-21T09:44:47;6.53;;;1.60;;
37495;SDS011;23346;52.088;4.746;2022-08-21T09:47:13;11.27;;;1.60;;
37495;SDS011;23346;52.088;4.746;2022-08-21T09:49:39;8.15;;;1.45;;
37495;SDS011;23346;52.088;4.746;2022-08-21T09:52:17;5.20;;;1.40;;
37495;SDS011;23346;52.088;4.746;2022-08-21T09:54:44;6.80;;;1.38;;
37495;SDS011;23346;52.088;4.746;2022-08-21T09:57:12;12.15;;;1.63;;
37495;SDS011;23346;52.088;4.746;2022-08-21T10:00:07;10.73;;;1.95;;
37495;SDS011;23346;52.088;4.746;2022-08-21T10:02:34;8.45;;;1.60;;
37495;SDS011;23346;52.088;4.746;2022-08-21T10:05:03;10.90;;;1.67;;
37495;SDS011;23346;52.088;4.746;2022-08-21T10:07:30;10.23;;;1.38;;
37495;SDS011;23346;52.088;4.746;2022-08-21T10:09:58;7.18;;;1.67;;
37495;SDS011;23346;52.088;4.746;2022-08-21T10:12:27;9.13;;;1.45;;
37495;SDS011;23346;52.088;4.746;2022-08-21T10:17:31;7.47;;;1.20;;
37495;SDS011;23346;52.088;4.746;2022-08-21T10:22:43;4.75;;;1.48;;
37495;SDS011;23346;52.088;4.746;2022-08-21T10:35:27;7.63;;;1.30;;
37495;SDS011;23346;52.088;4.746;2022-08-21T10:47:53;6.65;;;1.30;;
37495;SDS011;23346;52.088;4.746;2022-08-21T10:50:30;6.07;;;1.40;;
37495;SDS011;23346;52.088;4.746;2022-08-21T10:55:26;6.72;;;1.10;;
37495;SDS011;23346;52.088;4.746;2022-08-21T11:00:36;9.43;;;1.48;;
37495;SDS011;23346;52.088;4.746;2022-08-21T11:03:09;4.13;;;1.17;;
37495;SDS011;23346;52.088;4.746;2022-08-21T11:05:44;6.30;;;1.05;;
37495;SDS011;23346;52.088;4.746;2022-08-21T11:08:15;3.95;;;1.10;;
37495;SDS011;23346;52.088;4.746;2022-08-21T11:10:48;5.75;;;1.20;;
37495;SDS011;23346;52.088;4.746;2022-08-21T11:13:31;10.10;;;1.33;;
37495;SDS011;23346;52.088;4.746;2022-08-21T11:16:05;8.30;;;1.10;;
37495;SDS011;23346;52.088;4.746;2022-08-21T11:18:37;5.15;;;1.08;;
37495;SDS011;23346;52.088;4.746;2022-08-21T11:23:45;5.18;;;1.20;;
37495;SDS011;23346;52.088;4.746;2022-08-21T11:26:23;5.00;;;1.17;;
37495;SDS011;23346;52.088;4.746;2022-08-21T11:28:52;4.80;;;1.10;;
37495;SDS011;23346;52.088;4.746;2022-08-21T11:39:22;6.88;;;1.08;;
37495;SDS011;23346;52.088;4.746;2022-08-21T11:42:35;8.02;;;1.55;;
37495;SDS011;23346;52.088;4.746;2022-08-21T11:44:49;5.30;;;0.90;;
37495;SDS011;23346;52.088;4.746;2022-08-21T11:52:16;7.63;;;1.23;;
37495;SDS011;23346;52.088;4.746;2022-08-21T11:54:46;6.00;;;1.20;;
37495;SDS011;23346;52.088;4.746;2022-08-21T11:57:29;9.55;;;1.15;;
37495;SDS011;23346;52.088;4.746;2022-08-21T12:02:34;6.43;;;1.15;;
37495;SDS011;23346;52.088;4.746;2022-08-21T12:05:05;4.97;;;1.00;;
37495;SDS011;23346;52.088;4.746;2022-08-21T12:07:39;7.00;;;1.25;;
37495;SDS011;23346;52.088;4.746;2022-08-21T12:10:08;5.97;;;0.85;;
37495;SDS011;23346;52.088;4.746;2022-08-21T12:12:36;9.70;;;1.27;;
37495;SDS011;23346;52.088;4.746;2022-08-21T12:17:51;12.07;;;1.27;;
37495;SDS011;23346;52.088;4.746;2022-08-21T12:20:25;9.57;;;1.20;;
37495;SDS011;23346;52.088;4.746;2022-08-21T12:23:03;6.25;;;1.38;;
37495;SDS011;23346;52.088;4.746;2022-08-21T12:25:36;6.55;;;1.20;;
37495;SDS011;23346;52.088;4.746;2022-08-21T12:28:07;7.72;;;1.55;;
37495;SDS011;23346;52.088;4.746;2022-08-21T12:30:38;5.43;;;1.20;;
37495;SDS011;23346;52.088;4.746;2022-08-21T12:33:06;8.52;;;1.38;;
37495;SDS011;23346;52.088;4.746;2022-08-21T12:35:37;6.55;;;1.20;;
37495;SDS011;23346;52.088;4.746;2022-08-21T12:40:30;6.93;;;1.27;;
37495;SDS011;23346;52.088;4.746;2022-08-21T12:42:58;6.75;;;1.33;;
37495;SDS011;23346;52.088;4.746;2022-08-21T12:45:28;6.50;;;1.30;;
37495;SDS011;23346;52.088;4.746;2022-08-21T12:48:06;7.10;;;1.10;;
37495;SDS011;23346;52.088;4.746;2022-08-21T12:50:42;7.32;;;1.40;;
37495;SDS011;23346;52.088;4.746;2022-08-21T12:55:42;8.65;;;1.25;;
37495;SDS011;23346;52.088;4.746;2022-08-21T12:58:18;7.20;;;1.23;;
37495;SDS011;23346;52.088;4.746;2022-08-21T13:01:45;7.60;;;1.00;;
37495;SDS011;23346;52.088;4.746;2022-08-21T13:03:40;10.65;;;1.40;;
37495;SDS011;23346;52.088;4.746;2022-08-21T13:06:06;4.57;;;1.15;;
37495;SDS011;23346;52.088;4.746;2022-08-21T13:08:35;7.97;;;1.15;;
37495;SDS011;23346;52.088;4.746;2022-08-21T13:11:05;6.30;;;1.13;;
37495;SDS011;23346;52.088;4.746;2022-08-21T13:13:31;5.90;;;1.10;;
37495;SDS011;23346;52.088;4.746;2022-08-21T13:15:58;4.65;;;1.23;;
37495;SDS011;23346;52.088;4.746;2022-08-21T13:18:26;4.85;;;0.98;;
37495;SDS011;23346;52.088;4.746;2022-08-21T13:21:01;3.97;;;0.93;;
37495;SDS011;23346;52.088;4.746;2022-08-21T13:23:29;4.50;;;0.85;;
37495;SDS011;23346;52.088;4.746;2022-08-21T13:25:55;5.85;;;1.00;;
37495;SDS011;23346;52.088;4.746;2022-08-21T13:28:23;4.35;;;1.10;;
37495;SDS011;23346;52.088;4.746;2022-08-21T13:30:50;2.85;;;0.93;;
37495;SDS011;23346;52.088;4.746;2022-08-21T13:33:18;4.50;;;1.02;;
37495;SDS011;23346;52.088;4.746;2022-08-21T13:36:31;7.45;;;1.00;;
37495;SDS011;23346;52.088;4.746;2022-08-21T13:38:31;6.35;;;0.82;;
37495;SDS011;23346;52.088;4.746;2022-08-21T13:41:03;5.00;;;1.08;;
37495;SDS011;23346;52.088;4.746;2022-08-21T13:43:35;2.85;;;0.75;;
37495;SDS011;23346;52.088;4.746;2022-08-21T13:46:02;5.40;;;0.98;;
37495;SDS011;23346;52.088;4.746;2022-08-21T13:48:32;5.38;;;0.82;;
37495;SDS011;23346;52.088;4.746;2022-08-21T13:50:59;4.30;;;0.80;;
37495;SDS011;23346;52.088;4.746;2022-08-21T13:53:30;2.92;;;0.90;;
37495;SDS011;23346;52.088;4.746;2022-08-21T13:55:56;8.38;;;1.00;;
37495;SDS011;23346;52.088;4.746;2022-08-21T13:58:24;4.30;;;0.98;;
37495;SDS011;23346;52.088;4.746;2022-08-21T14:00:50;5.00;;;1.20;;
37495;SDS011;23346;52.088;4.746;2022-08-21T14:05:58;6.13;;;1.00;;
37495;SDS011;23346;52.088;4.746;2022-08-21T14:08:34;5.28;;;0.88;;
37495;SDS011;23346;52.088;4.746;2022-08-21T14:11:02;6.15;;;1.02;;
37495;SDS011;23346;52.088;4.746;2022-08-21T14:13:34;7.78;;;1.48;;
37495;SDS011;23346;52.088;4.746;2022-08-21T14:16:02;3.50;;;0.70;;
37495;SDS011;23346;52.088;4.746;2022-08-21T14:18:29;7.07;;;1.33;;
37495;SDS011;23346;52.088;4.746;2022-08-21T14:21:07;6.43;;;1.10;;
37495;SDS011;23346;52.088;4.746;2022-08-21T14:23:34;6.55;;;1.58;;
37495;SDS011;23346;52.088;4.746;2022-08-21T14:26:02;3.80;;;0.90;;
37495;SDS011;23346;52.088;4.746;2022-08-21T14:28:30;5.28;;;1.10;;
37495;SDS011;23346;52.088;4.746;2022-08-21T14:30:57;5.03;;;0.93;;
37495;SDS011;23346;52.088;4.746;2022-08-21T14:33:31;9.98;;;1.27;;
37495;SDS011;23346;52.088;4.746;2022-08-21T14:35:57;4.60;;;1.00;;
37495;SDS011;23346;52.088;4.746;2022-08-21T14:38:25;8.43;;;1.05;;
37495;SDS011;23346;52.088;4.746;2022-08-21T14:40:52;5.95;;;0.98;;
37495;SDS011;23346;52.088;4.746;2022-08-21T14:43:19;5.53;;;1.25;;
37495;SDS011;23346;52.088;4.746;2022-08-21T14:45:45;15.77;;;1.38;;
37495;SDS011;23346;52.088;4.746;2022-08-21T14:48:11;8.20;;;1.92;;
37495;SDS011;23346;52.088;4.746;2022-08-21T14:50:37;7.60;;;1.08;;
37495;SDS011;23346;52.088;4.746;2022-08-21T14:53:04;6.07;;;1.08;;
37495;SDS011;23346;52.088;4.746;2022-08-21T14:55:30;6.20;;;1.40;;
37495;SDS011;23346;52.088;4.746;2022-08-21T14:58:17;6.28;;;1.30;;
37495;SDS011;23346;52.088;4.746;2022-08-21T15:00:43;10.25;;;1.33;;
37495;SDS011;23346;52.088;4.746;2022-08-21T15:03:09;8.20;;;1.40;;
37495;SDS011;23346;52.088;4.746;2022-08-21T15:05:35;5.75;;;1.00;;
37495;SDS011;23346;52.088;4.746;2022-08-21T15:08:01;7.45;;;1.13;;
37495;SDS011;23346;52.088;4.746;2022-08-21T15:10:28;8.38;;;0.90;;
37495;SDS011;23346;52.088;4.746;2022-08-21T15:12:55;4.20;;;1.00;;
37495;SDS011;23346;52.088;4.746;2022-08-21T15:15:21;6.32;;;1.30;;
37495;SDS011;23346;52.088;4.746;2022-08-21T15:17:47;7.90;;;1.25;;
37495;SDS011;23346;52.088;4.746;2022-08-21T15:20:13;9.73;;;1.65;;
37495;SDS011;23346;52.088;4.746;2022-08-21T15:22:39;6.22;;;1.08;;
37495;SDS011;23346;52.088;4.746;2022-08-21T15:25:05;5.47;;;1.40;;
37495;SDS011;23346;52.088;4.746;2022-08-21T15:27:31;9.32;;;1.63;;
37495;SDS011;23346;52.088;4.746;2022-08-21T15:29:57;8.10;;;1.20;;
37495;SDS011;23346;52.088;4.746;2022-08-21T15:32:25;6.28;;;1.27;;
37495;SDS011;23346;52.088;4.746;2022-08-21T15:34:52;11.70;;;1.48;;
37495;SDS011;23346;52.088;4.746;2022-08-21T15:37:18;7.10;;;1.60;;
37495;SDS011;23346;52.088;4.746;2022-08-21T15:39:45;8.82;;;2.05;;
37495;SDS011;23346;52.088;4.746;2022-08-21T15:42:11;11.85;;;1.15;;
37495;SDS011;23346;52.088;4.746;2022-08-21T15:44:41;5.32;;;1.13;;
37495;SDS011;23346;52.088;4.746;2022-08-21T15:47:14;8.88;;;1.20;;
37495;SDS011;23346;52.088;4.746;2022-08-21T15:49:41;11.85;;;1.90;;
37495;SDS011;23346;52.088;4.746;2022-08-21T15:52:10;10.95;;;1.33;;
37495;SDS011;23346;52.088;4.746;2022-08-21T15:54:36;10.15;;;1.60;;